createdAt,value
2023-04-16T00:00:39.523Z,12.33
2023-04-16T00:03:09.301Z,12.30
2023-04-16T00:05:36.255Z,12.20
2023-04-16T00:08:06.105Z,12.26
2023-04-16T00:10:33.020Z,12.63
2023-04-16T00:12:59.794Z,12.29
2023-04-16T00:15:26.584Z,12.36
2023-04-16T00:17:56.276Z,12.61
2023-04-16T00:20:23.048Z,12.50
2023-04-16T00:22:59.968Z,12.02
2023-04-16T00:25:26.705Z,11.78
2023-04-16T00:27:53.505Z,11.95
2023-04-16T00:30:20.246Z,12.05
2023-04-16T00:32:49.883Z,11.68
2023-04-16T00:35:16.729Z,12.19
2023-04-16T00:37:43.511Z,12.20
2023-04-16T00:40:10.633Z,11.99
2023-04-16T00:42:37.379Z,11.98
2023-04-16T00:45:05.620Z,11.85
2023-04-16T00:47:32.429Z,11.97
2023-04-16T00:49:59.513Z,12.17
2023-04-16T00:52:27.602Z,12.22
2023-04-16T00:54:58.223Z,12.22
2023-04-16T00:57:24.991Z,12.48
2023-04-16T00:59:59.458Z,12.36
2023-04-16T01:02:29.235Z,12.20
2023-04-16T01:05:01.909Z,12.06
2023-04-16T01:07:40.640Z,12.31
2023-04-16T01:10:07.905Z,12.39
2023-04-16T01:12:34.668Z,12.63
2023-04-16T01:15:01.522Z,12.89
2023-04-16T01:17:28.311Z,13.04
2023-04-16T01:19:59.324Z,13.10
2023-04-16T01:22:28.945Z,13.30
2023-04-16T01:25:06.303Z,13.30
2023-04-16T01:27:45.251Z,13.44
2023-04-16T01:30:15.032Z,13.26
2023-04-16T01:32:42.128Z,13.12
2023-04-16T01:35:09.001Z,12.82
2023-04-16T01:37:35.757Z,12.42
2023-04-16T01:40:06.679Z,12.60
2023-04-16T01:42:33.536Z,12.44
2023-04-16T01:45:00.295Z,12.41
2023-04-16T01:50:11.462Z,12.61
2023-04-16T01:52:40.915Z,12.58
2023-04-16T01:55:08.985Z,12.56
2023-04-16T01:57:35.741Z,12.50
2023-04-16T02:00:03.428Z,12.50
2023-04-16T02:02:33.164Z,12.31
2023-04-16T02:04:59.986Z,12.20
2023-04-16T02:07:29.836Z,12.51
2023-04-16T02:09:56.558Z,12.54
2023-04-16T02:12:23.268Z,12.98
2023-04-16T02:15:13.411Z,12.93
2023-04-16T02:17:40.264Z,12.25
2023-04-16T02:20:07.682Z,12.32
2023-04-16T02:22:35.212Z,12.72
2023-04-16T02:25:01.935Z,12.51
2023-04-16T02:27:28.692Z,12.71
2023-04-16T02:29:55.465Z,13.03
2023-04-16T02:32:22.300Z,12.64
2023-04-16T02:34:49.077Z,12.34
2023-04-16T02:37:15.879Z,12.34
2023-04-16T02:39:42.602Z,12.20
2023-04-16T02:42:09.370Z,12.17
2023-04-16T02:44:36.117Z,12.60
2023-04-16T02:47:14.767Z,12.87
2023-04-16T02:49:51.552Z,12.76
2023-04-16T02:52:21.486Z,12.95
2023-04-16T02:54:48.246Z,12.97
2023-04-16T02:57:17.737Z,13.04
2023-04-16T02:59:45.324Z,12.80
2023-04-16T03:02:17.740Z,12.45
2023-04-16T03:05:10.602Z,12.03
2023-04-16T03:07:40.859Z,11.96
2023-04-16T03:10:08.661Z,12.08
2023-04-16T03:12:36.056Z,12.11
2023-04-16T03:15:06.234Z,12.35
2023-04-16T03:17:33.198Z,12.43
2023-04-16T03:20:00.189Z,12.14
2023-04-16T03:22:32.132Z,12.19
2023-04-16T03:24:58.929Z,12.16
2023-04-16T03:27:31.996Z,12.15
2023-04-16T03:29:58.797Z,12.40
2023-04-16T03:32:25.953Z,12.10
2023-04-16T03:34:52.787Z,12.24
2023-04-16T03:37:30.071Z,12.14
2023-04-16T03:40:02.698Z,12.11
2023-04-16T03:42:29.448Z,11.98
2023-04-16T03:44:56.184Z,12.09
2023-04-16T03:47:25.777Z,12.13
2023-04-16T03:49:57.084Z,11.87
2023-04-16T03:52:23.833Z,11.63
2023-04-16T03:54:59.697Z,12.09
2023-04-16T03:57:35.567Z,11.85
2023-04-16T04:00:02.496Z,11.35
2023-04-16T04:02:29.444Z,11.41
2023-04-16T04:04:56.472Z,11.39
2023-04-16T04:07:27.892Z,11.28
2023-04-16T04:09:57.295Z,11.35
2023-04-16T04:12:24.184Z,11.68
2023-04-16T04:14:50.940Z,11.44
2023-04-16T04:17:23.164Z,11.76
2023-04-16T04:20:01.205Z,11.55
2023-04-16T04:22:28.589Z,11.76
2023-04-16T04:24:55.381Z,11.94
2023-04-16T04:27:31.701Z,11.72
2023-04-16T04:29:58.507Z,11.40
2023-04-16T04:32:27.343Z,11.47
2023-04-16T04:34:54.231Z,11.63
2023-04-16T04:37:27.171Z,11.79
2023-04-16T04:39:56.731Z,11.77
2023-04-16T04:42:23.581Z,11.84
2023-04-16T04:44:50.365Z,11.70
2023-04-16T04:47:17.148Z,12.05
2023-04-16T04:49:48.750Z,11.87
2023-04-16T04:52:15.684Z,11.56
2023-04-16T04:54:42.611Z,11.63
2023-04-16T04:57:12.056Z,11.32
2023-04-16T04:59:46.740Z,11.33
2023-04-16T05:02:13.753Z,11.45
2023-04-16T05:04:42.321Z,11.56
2023-04-16T05:07:20.715Z,11.70
2023-04-16T05:09:53.066Z,11.84
2023-04-16T05:12:19.793Z,12.09
2023-04-16T05:14:48.278Z,11.82
2023-04-16T05:17:15.028Z,11.90
2023-04-16T05:19:54.875Z,12.01
2023-04-16T05:22:30.481Z,12.14
2023-04-16T05:24:57.254Z,12.02
2023-04-16T05:27:26.714Z,12.49
2023-04-16T05:29:56.373Z,12.18
2023-04-16T05:34:58.280Z,12.17
2023-04-16T05:37:33.080Z,11.98
2023-04-16T05:40:02.677Z,12.16
2023-04-16T05:42:36.333Z,12.17
2023-04-16T05:45:10.887Z,12.31
2023-04-16T05:47:40.024Z,12.32
2023-04-16T05:50:14.715Z,12.06
2023-04-16T05:52:42.077Z,12.34
2023-04-16T05:55:13.134Z,12.24
2023-04-16T05:57:50.963Z,12.28
2023-04-16T06:00:29.463Z,12.41
2023-04-16T06:03:04.018Z,12.37
2023-04-16T06:05:31.297Z,12.34
2023-04-16T06:07:58.578Z,12.88
2023-04-16T06:10:25.432Z,12.83
2023-04-16T06:12:52.191Z,12.91
2023-04-16T06:15:24.549Z,12.89
2023-04-16T06:18:01.239Z,13.34
2023-04-16T06:20:36.668Z,13.22
2023-04-16T06:23:17.714Z,13.35
2023-04-16T06:25:48.091Z,13.13
2023-04-16T06:28:17.336Z,13.24
2023-04-16T06:30:44.744Z,13.28
2023-04-16T06:33:12.054Z,13.35
2023-04-16T06:35:41.978Z,13.55
2023-04-16T06:38:12.050Z,13.22
2023-04-16T06:40:47.552Z,13.17
2023-04-16T06:43:17.322Z,13.59
2023-04-16T06:45:47.425Z,13.86
2023-04-16T06:48:18.068Z,13.85
2023-04-16T06:50:50.641Z,14.06
2023-04-16T06:53:19.131Z,14.22
2023-04-16T06:55:45.822Z,14.15
2023-04-16T06:58:15.391Z,14.17
2023-04-16T07:00:42.129Z,14.27
2023-04-16T07:03:12.278Z,13.96
2023-04-16T07:05:45.551Z,13.95
2023-04-16T07:08:12.340Z,14.29
2023-04-16T07:10:39.224Z,14.20
2023-04-16T07:13:06.008Z,14.16
2023-04-16T07:15:32.778Z,14.45
2023-04-16T07:18:06.404Z,14.56
2023-04-16T07:20:36.268Z,14.54
2023-04-16T07:23:03.149Z,15.03
2023-04-16T07:25:32.900Z,15.10
2023-04-16T07:27:59.657Z,14.93
2023-04-16T07:30:26.513Z,15.11
2023-04-16T07:32:53.353Z,14.91
2023-04-16T07:35:22.549Z,14.59
2023-04-16T07:40:32.794Z,14.08
2023-04-16T07:43:10.648Z,14.58
2023-04-16T07:45:41.272Z,14.71
2023-04-16T07:48:08.667Z,15.19
2023-04-16T07:53:15.936Z,15.41
2023-04-16T07:55:45.832Z,15.04
2023-04-16T07:58:12.585Z,15.36
2023-04-16T08:00:39.838Z,15.19
2023-04-16T08:03:12.643Z,15.23
2023-04-16T08:05:42.705Z,15.28
2023-04-16T08:08:12.666Z,15.42
2023-04-16T08:10:42.587Z,15.30
2023-04-16T08:13:15.409Z,15.12
2023-04-16T08:15:43.680Z,15.29
2023-04-16T08:18:10.503Z,15.11
2023-04-16T08:20:50.373Z,15.18
2023-04-16T08:23:21.855Z,15.08
2023-04-16T08:25:48.596Z,15.33
2023-04-16T08:28:20.537Z,15.60
2023-04-16T08:30:49.418Z,15.32
2023-04-16T08:33:24.207Z,15.62
2023-04-16T08:35:50.996Z,15.24
2023-04-16T08:38:20.596Z,15.26
2023-04-16T08:40:48.630Z,15.36
2023-04-16T08:43:18.065Z,15.17
2023-04-16T08:45:47.943Z,15.17
2023-04-16T08:48:15.510Z,15.32
2023-04-16T08:50:52.719Z,15.35
2023-04-16T08:53:40.302Z,15.34
2023-04-16T08:56:14.259Z,15.36
2023-04-16T08:58:41.362Z,15.53
2023-04-16T09:01:10.081Z,15.44
2023-04-16T09:03:37.134Z,15.46
2023-04-16T09:06:07.742Z,15.38
2023-04-16T09:08:38.272Z,15.14
2023-04-16T09:11:07.767Z,15.04
2023-04-16T09:13:45.729Z,15.11
2023-04-16T09:16:21.412Z,15.30
2023-04-16T09:18:48.270Z,15.55
2023-04-16T09:21:23.902Z,15.68
2023-04-16T09:23:53.425Z,15.63
2023-04-16T09:26:23.901Z,15.59
2023-04-16T09:28:53.668Z,15.81
2023-04-16T09:31:32.746Z,15.50
2023-04-16T09:34:12.152Z,15.89
2023-04-16T09:36:41.565Z,15.97
2023-04-16T09:39:19.477Z,15.82
2023-04-16T09:41:53.696Z,15.82
2023-04-16T09:44:20.552Z,15.97
2023-04-16T09:46:56.992Z,16.15
2023-04-16T09:49:26.632Z,15.94
2023-04-16T09:51:54.676Z,16.10
2023-04-16T09:54:35.167Z,16.30
2023-04-16T09:57:01.903Z,16.54
2023-04-16T09:59:28.650Z,16.45
2023-04-16T10:02:14.698Z,16.33
2023-04-16T10:04:46.712Z,16.44
2023-04-16T10:07:13.498Z,16.54
2023-04-16T10:09:41.135Z,16.42
2023-04-16T10:12:14.461Z,16.59
2023-04-16T10:14:42.079Z,16.61
2023-04-16T10:19:54.876Z,16.70
2023-04-16T10:22:25.502Z,16.63
2023-04-16T10:24:53.315Z,16.73
2023-04-16T10:27:22.996Z,16.80
2023-04-16T10:29:52.461Z,16.54
2023-04-16T10:32:20.190Z,16.49
2023-04-16T10:34:52.731Z,16.66
2023-04-16T10:37:32.569Z,16.91
2023-04-16T10:39:59.651Z,16.74
2023-04-16T10:42:35.073Z,16.67
2023-04-16T10:45:01.829Z,16.76
2023-04-16T10:47:31.596Z,16.93
2023-04-16T10:49:58.522Z,16.95
2023-04-16T10:52:29.671Z,16.90
2023-04-16T10:54:59.743Z,16.99
2023-04-16T10:57:32.067Z,16.73
2023-04-16T11:00:02.019Z,16.79
2023-04-16T11:02:37.450Z,17.17
2023-04-16T11:05:04.752Z,17.30
2023-04-16T11:07:36.158Z,17.40
2023-04-16T11:10:07.613Z,16.87
2023-04-16T11:12:48.424Z,16.79
2023-04-16T11:15:16.800Z,16.73
2023-04-16T11:17:47.513Z,17.03
2023-04-16T11:20:24.344Z,17.25
2023-04-16T11:23:00.005Z,17.34
2023-04-16T11:25:32.374Z,17.33
2023-04-16T11:28:04.882Z,17.74
2023-04-16T11:30:36.855Z,17.50
2023-04-16T11:33:09.164Z,17.43
2023-04-16T11:35:35.936Z,17.42
2023-04-16T11:38:06.158Z,17.45
2023-04-16T11:40:35.976Z,17.57
2023-04-16T11:43:12.916Z,17.54
2023-04-16T11:45:53.743Z,17.37
2023-04-16T11:48:20.566Z,17.43
2023-04-16T11:51:02.941Z,17.43
2023-04-16T11:53:39.620Z,17.39
2023-04-16T11:56:06.830Z,17.31
2023-04-16T11:58:33.567Z,17.43
2023-04-16T12:01:01.938Z,17.49
2023-04-16T12:03:39.769Z,17.58
2023-04-16T12:06:09.902Z,17.47
2023-04-16T12:08:36.749Z,17.49
2023-04-16T12:11:03.513Z,17.50
2023-04-16T12:13:34.364Z,17.51
2023-04-16T12:16:02.358Z,17.51
2023-04-16T12:18:29.157Z,17.31
2023-04-16T12:20:55.964Z,17.39
2023-04-16T12:23:32.583Z,17.38
2023-04-16T12:26:10.258Z,17.49
2023-04-16T12:28:37.830Z,17.60
2023-04-16T12:31:08.732Z,17.70
2023-04-16T12:33:35.467Z,17.65
2023-04-16T12:36:16.648Z,17.67
2023-04-16T12:38:43.397Z,17.60
2023-04-16T12:41:10.193Z,17.43
2023-04-16T12:43:37.108Z,17.54
2023-04-16T12:46:04.423Z,17.63
2023-04-16T12:48:31.367Z,17.59
2023-04-16T12:50:58.132Z,17.65
2023-04-16T12:53:24.865Z,17.56
2023-04-16T12:55:51.637Z,17.58
2023-04-16T12:58:21.380Z,17.50
2023-04-16T13:00:50.748Z,17.59
2023-04-16T13:03:20.620Z,17.46
2023-04-16T13:05:50.664Z,17.60
2023-04-16T13:08:20.350Z,17.58
2023-04-16T13:10:50.148Z,17.56
2023-04-16T13:13:16.898Z,17.73
2023-04-16T13:15:45.893Z,17.56
2023-04-16T13:18:18.107Z,17.59
2023-04-16T13:20:44.879Z,17.56
2023-04-16T13:23:14.296Z,17.49
2023-04-16T13:25:43.557Z,17.68
2023-04-16T13:28:10.474Z,17.53
2023-04-16T13:30:40.356Z,17.63
2023-04-16T13:33:09.603Z,17.62
2023-04-16T13:35:36.320Z,17.81
2023-04-16T13:38:06.566Z,17.75
2023-04-16T13:40:38.974Z,17.64
2023-04-16T13:43:07.585Z,17.68
2023-04-16T13:45:34.532Z,17.62
2023-04-16T13:48:04.172Z,17.61
2023-04-16T13:50:31.259Z,17.37
2023-04-16T13:53:03.506Z,17.41
2023-04-16T13:55:33.296Z,17.37
2023-04-16T13:58:00.630Z,17.27
2023-04-16T14:00:33.576Z,17.20
2023-04-16T14:03:03.394Z,17.46
2023-04-16T14:05:30.279Z,17.59
2023-04-16T14:07:57.021Z,17.55
2023-04-16T14:10:23.771Z,17.73
2023-04-16T14:12:50.793Z,17.65
2023-04-16T14:15:17.788Z,17.51
2023-04-16T14:17:44.982Z,17.43
2023-04-16T14:20:13.475Z,17.24
2023-04-16T14:22:40.292Z,17.35
2023-04-16T14:25:07.390Z,17.31
2023-04-16T14:27:36.642Z,17.41
2023-04-16T14:30:04.066Z,17.34
2023-04-16T14:32:34.076Z,17.40
2023-04-16T14:35:01.016Z,17.52
2023-04-16T14:37:30.195Z,17.44
2023-04-16T14:40:01.566Z,17.48
2023-04-16T14:42:28.303Z,17.31
2023-04-16T14:44:55.026Z,17.44
2023-04-16T14:47:21.738Z,17.45
2023-04-16T14:49:55.815Z,17.46
2023-04-16T14:52:22.599Z,17.41
2023-04-16T14:54:49.339Z,17.48
2023-04-16T14:57:16.055Z,17.44
2023-04-16T14:59:50.313Z,17.58
2023-04-16T15:02:17.359Z,17.26
2023-04-16T15:04:44.305Z,17.12
2023-04-16T15:07:11.143Z,17.14
2023-04-16T15:09:40.603Z,17.30
2023-04-16T15:12:07.307Z,17.33
2023-04-16T15:14:49.649Z,17.41
2023-04-16T15:17:16.447Z,17.17
2023-04-16T15:19:45.300Z,17.14
2023-04-16T15:22:14.528Z,17.19
2023-04-16T15:24:41.295Z,17.25
2023-04-16T15:27:09.022Z,17.31
2023-04-16T15:29:40.805Z,17.27
2023-04-16T15:32:23.680Z,17.06
2023-04-16T15:34:51.101Z,17.09
2023-04-16T15:37:17.925Z,17.04
2023-04-16T15:39:48.799Z,16.95
2023-04-16T15:42:16.570Z,16.88
2023-04-16T15:44:51.875Z,17.00
2023-04-16T15:47:21.639Z,17.05
2023-04-16T15:49:57.230Z,17.07
2023-04-16T15:52:26.997Z,17.12
2023-04-16T15:54:57.735Z,17.19
2023-04-16T15:57:24.449Z,16.88
2023-04-16T16:00:06.017Z,16.87
2023-04-16T16:02:34.167Z,16.86
2023-04-16T16:05:03.992Z,16.83
2023-04-16T16:07:32.218Z,16.90
2023-04-16T16:09:59.054Z,16.86
2023-04-16T16:12:28.061Z,16.82
2023-04-16T16:14:55.527Z,16.74
2023-04-16T16:17:22.324Z,16.75
2023-04-16T16:19:49.051Z,16.81
2023-04-16T16:22:15.837Z,16.80
2023-04-16T16:24:42.714Z,16.71
2023-04-16T16:27:09.513Z,16.70
2023-04-16T16:29:41.006Z,16.63
2023-04-16T16:32:11.056Z,16.54
2023-04-16T16:34:40.841Z,16.45
2023-04-16T16:37:09.616Z,16.51
2023-04-16T16:39:38.663Z,16.56
2023-04-16T16:42:08.885Z,16.55
2023-04-16T16:44:37.034Z,16.49
2023-04-16T16:47:19.052Z,16.43
2023-04-16T16:49:45.747Z,16.42
2023-04-16T16:52:12.591Z,16.45
2023-04-16T16:54:39.351Z,16.38
2023-04-16T16:57:06.073Z,16.22
2023-04-16T16:59:32.808Z,16.13
2023-04-16T17:01:59.712Z,16.26
2023-04-16T17:04:27.620Z,16.34
2023-04-16T17:06:54.477Z,16.39
2023-04-16T17:09:23.769Z,16.33
2023-04-16T17:11:51.492Z,16.39
2023-04-16T17:14:18.297Z,16.32
2023-04-16T17:16:47.968Z,16.25
2023-04-16T17:19:14.763Z,16.10
2023-04-16T17:21:41.611Z,16.03
2023-04-16T17:24:08.451Z,15.88
2023-04-16T17:29:15.936Z,15.83
2023-04-16T17:31:43.974Z,15.87
2023-04-16T17:34:18.006Z,15.86
2023-04-16T17:36:44.737Z,15.93
2023-04-16T17:39:11.520Z,15.87
2023-04-16T17:41:38.241Z,15.70
2023-04-16T17:44:09.912Z,15.52
2023-04-16T17:46:41.548Z,15.48
2023-04-16T17:49:08.304Z,15.39
2023-04-16T17:51:35.104Z,15.33
2023-04-16T17:54:07.050Z,15.28
2023-04-16T17:56:33.642Z,15.29
2023-04-16T17:59:00.453Z,15.29
2023-04-16T18:01:30.066Z,15.22
2023-04-16T18:04:06.363Z,15.53
2023-04-16T18:06:33.200Z,15.54
2023-04-16T18:09:02.918Z,15.57
2023-04-16T18:11:31.145Z,15.68
2023-04-16T18:13:59.508Z,15.56
2023-04-16T18:16:30.336Z,15.66
2023-04-16T18:18:57.093Z,15.74
2023-04-16T18:21:23.836Z,15.67
2023-04-16T18:23:50.559Z,15.66
2023-04-16T18:26:22.426Z,15.57
2023-04-16T18:28:49.668Z,15.58
2023-04-16T18:31:21.171Z,15.57
2023-04-16T18:36:29.023Z,15.47
2023-04-16T18:39:07.848Z,15.39
2023-04-16T18:41:34.703Z,15.41
2023-04-16T18:44:09.256Z,15.35
2023-04-16T18:46:36.121Z,15.11
2023-04-16T18:49:12.295Z,15.03
2023-04-16T18:51:39.379Z,15.06
2023-04-16T18:54:06.192Z,15.02
2023-04-16T18:56:38.840Z,15.03
2023-04-16T18:59:05.629Z,15.02
2023-04-16T19:01:32.698Z,14.85
2023-04-16T19:03:59.494Z,14.80
2023-04-16T19:06:26.267Z,14.63
2023-04-16T19:08:53.040Z,14.51
2023-04-16T19:11:19.963Z,14.53
2023-04-16T19:13:52.070Z,14.49
2023-04-16T19:16:27.996Z,14.35
2023-04-16T19:18:54.791Z,14.53
2023-04-16T19:21:21.556Z,14.61
2023-04-16T19:23:48.335Z,14.95
2023-04-16T19:26:15.519Z,15.06
2023-04-16T19:28:42.484Z,14.77
2023-04-16T19:31:09.610Z,14.60
2023-04-16T19:33:36.391Z,14.48
2023-04-16T19:36:05.731Z,14.47
2023-04-16T19:38:32.517Z,14.61
2023-04-16T19:40:59.247Z,14.60
2023-04-16T19:43:25.994Z,14.65
2023-04-16T19:45:57.489Z,14.57
2023-04-16T19:48:31.951Z,14.58
2023-04-16T19:51:02.025Z,14.86
2023-04-16T19:53:28.748Z,14.67
2023-04-16T19:55:55.499Z,14.57
2023-04-16T19:58:24.507Z,14.47
2023-04-16T20:00:51.268Z,14.56
2023-04-16T20:03:24.162Z,14.56
2023-04-16T20:05:51.048Z,14.51
2023-04-16T20:08:17.939Z,14.48
2023-04-16T20:10:51.505Z,14.46
2023-04-16T20:13:21.735Z,14.42
2023-04-16T20:16:04.828Z,14.51
2023-04-16T20:18:31.425Z,14.55
2023-04-16T20:20:58.222Z,14.30
2023-04-16T20:23:34.991Z,14.20
2023-04-16T20:26:04.858Z,14.08
2023-04-16T20:28:31.653Z,14.28
2023-04-16T20:31:06.443Z,14.97
2023-04-16T20:33:34.534Z,14.62
2023-04-16T20:36:04.139Z,14.35
2023-04-16T20:38:34.271Z,14.09
2023-04-16T20:41:09.282Z,14.08
2023-04-16T20:43:45.385Z,14.09
2023-04-16T20:46:12.868Z,14.39
2023-04-16T20:48:39.717Z,14.51
2023-04-16T20:51:07.237Z,14.46
2023-04-16T20:53:33.990Z,14.13
2023-04-16T20:56:00.766Z,14.11
2023-04-16T20:58:29.029Z,14.04
2023-04-16T21:00:57.235Z,13.93
2023-04-16T21:03:24.661Z,13.91
2023-04-16T21:05:53.279Z,13.86
2023-04-16T21:08:21.432Z,13.80
2023-04-16T21:10:48.752Z,13.79
2023-04-16T21:13:15.691Z,14.02
2023-04-16T21:15:44.550Z,13.96
2023-04-16T21:18:14.694Z,13.86
2023-04-16T21:20:44.697Z,13.83
2023-04-16T21:23:11.621Z,13.78
2023-04-16T21:25:40.895Z,13.91
2023-04-16T21:28:27.739Z,13.76
2023-04-16T21:30:57.199Z,13.58
2023-04-16T21:33:23.980Z,13.60
2023-04-16T21:35:54.091Z,13.61
2023-04-16T21:38:21.817Z,13.63
2023-04-16T21:40:49.750Z,13.61
2023-04-16T21:43:17.595Z,13.62
2023-04-16T21:45:44.592Z,13.57
2023-04-16T21:48:20.690Z,13.47
2023-04-16T21:50:47.461Z,13.46
2023-04-16T21:53:26.098Z,13.32
2023-04-16T21:56:04.659Z,13.27
2023-04-16T21:58:34.396Z,13.48
2023-04-16T22:01:03.980Z,13.43
2023-04-16T22:03:32.546Z,13.29
2023-04-16T22:06:05.381Z,13.19
2023-04-16T22:08:35.234Z,13.31
2023-04-16T22:11:03.134Z,13.28
2023-04-16T22:13:33.576Z,13.20
2023-04-16T22:16:07.148Z,13.08
2023-04-16T22:18:34.781Z,13.13
2023-04-16T22:21:01.838Z,13.15
2023-04-16T22:23:31.105Z,13.07
2023-04-16T22:25:57.876Z,13.10
2023-04-16T22:28:24.613Z,13.08
2023-04-16T22:30:52.469Z,13.28
2023-04-16T22:33:19.210Z,13.16
2023-04-16T22:35:48.572Z,13.15
2023-04-16T22:38:22.298Z,13.27
2023-04-16T22:40:49.170Z,13.22
2023-04-16T22:43:15.907Z,13.16
2023-04-16T22:45:42.789Z,13.07
2023-04-16T22:48:15.801Z,13.08
2023-04-16T22:50:46.312Z,13.03
2023-04-16T22:53:16.267Z,13.01
2023-04-16T22:55:44.157Z,12.99
2023-04-16T22:58:10.882Z,13.01
2023-04-16T23:00:37.606Z,12.95
2023-04-16T23:03:07.375Z,13.02
2023-04-16T23:05:35.025Z,13.03
2023-04-16T23:08:03.875Z,13.01
2023-04-16T23:10:30.653Z,12.90
2023-04-16T23:12:57.489Z,12.94
2023-04-16T23:18:13.854Z,13.10
2023-04-16T23:20:43.122Z,12.90
2023-04-16T23:23:09.826Z,13.00
2023-04-16T23:25:41.022Z,12.98
2023-04-16T23:28:07.742Z,12.98
2023-04-16T23:30:45.157Z,12.82
2023-04-16T23:33:15.232Z,12.71
2023-04-16T23:35:44.195Z,12.74
2023-04-16T23:38:10.917Z,12.71
2023-04-16T23:40:37.620Z,12.79
2023-04-16T23:43:06.878Z,12.88
2023-04-16T23:45:42.320Z,12.72
2023-04-16T23:48:12.197Z,12.69
2023-04-16T23:50:45.163Z,12.72
2023-04-16T23:53:14.092Z,12.86
2023-04-16T23:55:40.898Z,12.82
2023-04-16T23:58:07.688Z,12.71
